Time;durP1;ratioP1;P1;durP2;ratioP2;P2;SDS_P1;SDS_P2;PMS_P1;PMS_P2;Temp;Humidity;BMP_temperature;BMP_pressure;BME280_temperature;BME280_humidity;BME280_pressure;Samples;Min_cycle;Max_cycle;Signal;HPM_P1;HPM_P2
2022/04/19 00:00:27;;;;;;;6.82;6.13;;;6.10;99.90;;;;;;5059894;28;20112;-72
2022/04/19 00:02:53;;;;;;;6.65;5.97;;;6.10;99.90;;;;;;5068762;28;20103;-72
2022/04/19 00:05:18;;;;;;;7.55;6.05;;;6.10;99.90;;;;;;5061985;28;20017;-73
2022/04/19 00:07:44;;;;;;;7.32;5.80;;;6.30;99.90;;;;;;5052598;28;20064;-73
2022/04/19 00:10:11;;;;;;;7.45;5.53;;;6.30;99.90;;;;;;5047476;28;20446;-73
2022/04/19 00:12:36;;;;;;;7.80;5.70;;;6.50;99.90;;;;;;5045400;28;20025;-73
2022/04/19 00:15:03;;;;;;;6.70;5.25;;;6.60;99.90;;;;;;5051859;28;20029;-74
2022/04/19 00:17:29;;;;;;;7.32;6.07;;;6.70;99.90;;;;;;5051618;28;20025;-74
2022/04/19 00:19:55;;;;;;;6.07;5.47;;;6.80;99.90;;;;;;5052073;28;20212;-73
2022/04/19 00:22:20;;;;;;;7.55;5.57;;;6.70;99.90;;;;;;5052721;28;20025;-73
2022/04/19 00:24:46;;;;;;;5.90;5.20;;;6.70;99.90;;;;;;5053066;28;20083;-72
2022/04/19 00:27:12;;;;;;;6.15;5.38;;;6.70;99.90;;;;;;5053065;28;20100;-71
2022/04/19 00:29:41;;;;;;;7.80;5.75;;;6.60;99.90;;;;;;5052811;28;20096;-73
2022/04/19 00:32:08;;;;;;;6.30;5.55;;;6.60;99.90;;;;;;5053735;28;20021;-74
2022/04/19 00:34:33;;;;;;;6.43;5.30;;;6.50;99.90;;;;;;5051779;28;20544;-74
2022/04/19 00:37:01;;;;;;;6.20;5.38;;;6.60;99.90;;;;;;5052831;28;20037;-74
2022/04/19 00:39:26;;;;;;;7.00;6.05;;;6.70;99.90;;;;;;5051548;28;20036;-74
2022/04/19 00:41:52;;;;;;;7.07;5.68;;;6.40;99.90;;;;;;5052613;28;20029;-74
2022/04/19 00:44:17;;;;;;;7.15;6.25;;;5.80;99.90;;;;;;5051458;28;20025;-73
2022/04/19 00:46:43;;;;;;;7.03;6.32;;;5.30;99.90;;;;;;5052584;28;20425;-74
2022/04/19 00:49:08;;;;;;;7.20;6.50;;;5.10;99.90;;;;;;5051413;28;20429;-74
2022/04/19 00:51:35;;;;;;;7.50;6.32;;;5.40;99.90;;;;;;5052309;28;20021;-74
2022/04/19 00:54:01;;;;;;;7.28;5.90;;;5.60;99.90;;;;;;5052506;28;20021;-73
2022/04/19 00:56:29;;;;;;;8.57;5.97;;;5.60;99.90;;;;;;5047205;28;20498;-73
2022/04/19 00:58:55;;;;;;;7.20;5.88;;;5.70;99.90;;;;;;5052179;28;20021;-74
2022/04/19 01:01:20;;;;;;;6.75;5.57;;;5.70;99.90;;;;;;5052236;28;20082;-73
2022/04/19 01:03:46;;;;;;;6.97;5.40;;;5.50;99.90;;;;;;5052339;28;20405;-73
2022/04/19 01:06:11;;;;;;;7.45;5.82;;;5.60;99.90;;;;;;5052189;28;20297;-72
2022/04/19 01:08:38;;;;;;;7.15;6.07;;;5.70;99.90;;;;;;5050845;28;20093;-73
2022/04/19 01:13:48;;;;;;;6.65;6.03;;;5.30;99.90;;;;;;5052446;28;20540;-73
2022/04/19 01:16:15;;;;;;;6.75;6.05;;;5.20;99.90;;;;;;5051996;28;20470;-74
2022/04/19 01:18:41;;;;;;;7.57;6.60;;;5.30;99.90;;;;;;5051913;28;20017;-72
2022/04/19 01:21:06;;;;;;;6.53;5.85;;;5.10;99.90;;;;;;5051807;28;20055;-73
2022/04/19 01:23:32;;;;;;;8.10;5.93;;;5.10;99.90;;;;;;5051921;28;20043;-72
2022/04/19 01:25:58;;;;;;;6.28;5.68;;;5.30;99.90;;;;;;5051848;28;20025;-72
2022/04/19 01:28:24;;;;;;;6.70;6.00;;;5.00;99.90;;;;;;5049367;28;20017;-72
2022/04/19 01:30:52;;;;;;;5.93;5.25;;;5.20;99.90;;;;;;5050151;28;20032;-72
2022/04/19 01:33:18;;;;;;;6.93;6.22;;;5.20;99.90;;;;;;5040507;28;20032;-73
2022/04/19 01:35:44;;;;;;;7.05;5.68;;;5.10;99.90;;;;;;5047559;28;20060;-72
2022/04/19 01:38:09;;;;;;;6.22;5.60;;;5.00;99.90;;;;;;5044771;28;20391;-71
2022/04/19 01:40:35;;;;;;;6.30;5.57;;;4.80;99.90;;;;;;5047867;28;20021;-73
2022/04/19 01:43:02;;;;;;;6.70;6.05;;;5.10;99.90;;;;;;5039881;28;20036;-72
2022/04/19 01:45:30;;;;;;;8.93;5.93;;;4.90;99.90;;;;;;5051623;28;20032;-72
2022/04/19 01:47:57;;;;;;;6.93;6.10;;;4.90;99.90;;;;;;5051532;28;20029;-72
2022/04/19 01:50:26;;;;;;;8.98;6.63;;;5.00;99.90;;;;;;5051387;28;20028;-72
2022/04/19 01:52:53;;;;;;;7.30;6.10;;;5.10;99.90;;;;;;5050359;28;20025;-72
2022/04/19 01:55:20;;;;;;;5.95;5.35;;;4.90;99.90;;;;;;5051614;28;20478;-71
2022/04/19 01:57:57;;;;;;;7.25;6.25;;;5.00;99.90;;;;;;5044828;28;20056;-72
2022/04/19 02:00:25;;;;;;;6.68;5.90;;;4.80;99.90;;;;;;5051219;28;20120;-73
2022/04/19 02:02:52;;;;;;;7.43;5.72;;;4.70;99.90;;;;;;5051582;28;20029;-71
2022/04/19 02:05:18;;;;;;;8.75;6.22;;;4.90;99.90;;;;;;5050315;28;20029;-72
2022/04/19 02:07:45;;;;;;;7.55;5.90;;;4.90;99.90;;;;;;5050297;28;20027;-72
2022/04/19 02:10:13;;;;;;;7.78;5.85;;;5.10;99.90;;;;;;5050166;28;20125;-74
2022/04/19 02:12:39;;;;;;;6.03;5.43;;;5.00;99.90;;;;;;5051833;28;20433;-74
2022/04/19 02:15:05;;;;;;;5.93;5.00;;;4.80;99.90;;;;;;5051412;28;20024;-74
2022/04/19 02:17:31;;;;;;;6.00;5.40;;;5.00;99.90;;;;;;5051384;28;20087;-74
2022/04/19 02:20:03;;;;;;;6.85;5.53;;;4.90;99.90;;;;;;5051304;28;20029;-73
2022/04/19 02:22:29;;;;;;;6.45;5.75;;;5.00;99.90;;;;;;5049766;28;20478;-74
2022/04/19 02:24:56;;;;;;;6.53;5.70;;;4.80;99.90;;;;;;5051414;28;20025;-72
2022/04/19 02:27:24;;;;;;;6.70;5.93;;;4.80;99.90;;;;;;5051115;28;20597;-74
2022/04/19 02:29:54;;;;;;;7.47;6.03;;;4.60;99.90;;;;;;5051319;28;20367;-74
2022/04/19 02:32:20;;;;;;;7.57;5.97;;;4.60;99.90;;;;;;5049821;28;20021;-73
2022/04/19 02:34:46;;;;;;;6.45;5.35;;;4.60;99.90;;;;;;5051343;28;20025;-74
2022/04/19 02:37:11;;;;;;;6.60;5.95;;;4.50;99.90;;;;;;5049856;28;20090;-73
2022/04/19 02:39:37;;;;;;;6.30;5.20;;;4.40;99.90;;;;;;5051372;28;20392;-72
2022/04/19 02:42:04;;;;;;;6.30;5.57;;;4.30;99.90;;;;;;5052418;28;20032;-73
2022/04/19 02:44:30;;;;;;;6.53;5.82;;;4.30;99.90;;;;;;5055014;28;20033;-74
2022/04/19 02:46:55;;;;;;;6.05;5.35;;;4.20;99.90;;;;;;5055021;28;20028;-74
2022/04/19 02:49:21;;;;;;;6.93;5.50;;;4.20;99.90;;;;;;5055003;28;20031;-72
2022/04/19 02:51:47;;;;;;;6.70;5.80;;;4.00;99.90;;;;;;5054710;28;20102;-73
2022/04/19 02:54:12;;;;;;;5.72;5.13;;;4.10;99.90;;;;;;5054914;28;20068;-72
2022/04/19 02:56:38;;;;;;;5.85;5.25;;;4.00;99.90;;;;;;5048817;28;20029;-72
2022/04/19 02:59:03;;;;;;;5.90;5.28;;;4.00;99.90;;;;;;5054885;28;20033;-72
2022/04/19 03:01:29;;;;;;;6.43;5.35;;;4.10;99.90;;;;;;5054323;28;20083;-73
2022/04/19 03:03:55;;;;;;;6.35;5.75;;;4.00;99.90;;;;;;5054604;28;20033;-73
2022/04/19 03:06:20;;;;;;;6.60;5.53;;;4.20;99.90;;;;;;5054550;28;20433;-73
2022/04/19 03:08:46;;;;;;;6.30;5.70;;;4.00;99.90;;;;;;5054565;28;20071;-73
2022/04/19 03:11:12;;;;;;;6.78;5.65;;;4.10;99.90;;;;;;5054087;28;20020;-71
2022/04/19 03:13:37;;;;;;;6.68;5.97;;;4.00;99.90;;;;;;5054496;28;20021;-73
2022/04/19 03:16:03;;;;;;;7.75;5.90;;;4.00;99.90;;;;;;5053076;28;20029;-73
2022/04/19 03:18:32;;;;;;;9.98;6.63;;;4.00;99.90;;;;;;5054379;28;20021;-72
2022/04/19 03:20:58;;;;;;;8.70;6.25;;;4.10;99.90;;;;;;5052787;28;20029;-72
2022/04/19 03:28:53;;;;;;;7.65;5.90;;;3.70;99.90;;;;;;5041212;28;20430;-72
2022/04/19 03:31:22;;;;;;;7.30;5.75;;;3.60;99.90;;;;;;5047398;28;20021;-72
2022/04/19 03:33:51;;;;;;;6.75;5.78;;;3.60;99.90;;;;;;5047411;28;20029;-72
2022/04/19 03:36:16;;;;;;;6.45;5.85;;;3.60;99.90;;;;;;5070305;22;20132;-73
2022/04/19 03:38:43;;;;;;;6.75;6.05;;;3.60;99.90;;;;;;5079981;28;20120;-73
2022/04/19 03:41:09;;;;;;;6.25;5.40;;;3.50;99.90;;;;;;5073421;28;20439;-73
2022/04/19 03:43:37;;;;;;;7.55;5.78;;;3.40;99.90;;;;;;5086992;28;20053;-74
2022/04/19 03:46:02;;;;;;;6.22;5.63;;;3.40;99.90;;;;;;5093953;28;20012;-74
2022/04/19 03:48:28;;;;;;;6.43;5.78;;;3.40;99.90;;;;;;5088163;28;20427;-74
2022/04/19 03:50:54;;;;;;;6.53;5.90;;;3.30;99.90;;;;;;5073048;28;20513;-73
2022/04/19 03:53:19;;;;;;;5.90;5.13;;;3.40;99.90;;;;;;5086859;28;20104;-74
2022/04/19 03:55:45;;;;;;;6.15;5.55;;;3.30;99.90;;;;;;5080519;28;20028;-73
2022/04/19 03:58:10;;;;;;;7.30;5.70;;;3.20;99.90;;;;;;5080024;28;20028;-73
2022/04/19 04:00:36;;;;;;;8.02;6.13;;;3.20;99.90;;;;;;5075177;28;20508;-73
2022/04/19 04:03:02;;;;;;;7.38;5.43;;;3.20;99.90;;;;;;5072118;28;20040;-72
2022/04/19 04:05:28;;;;;;;7.60;5.75;;;3.20;99.90;;;;;;5065743;28;20020;-73
2022/04/19 04:07:57;;;;;;;7.68;5.65;;;3.30;99.90;;;;;;5079925;28;20021;-72
2022/04/19 04:10:22;;;;;;;6.63;5.68;;;3.30;99.90;;;;;;5080482;28;20028;-73
2022/04/19 04:12:48;;;;;;;9.23;6.00;;;3.20;99.90;;;;;;5093506;28;20055;-73
2022/04/19 04:15:13;;;;;;;6.80;5.63;;;3.20;99.90;;;;;;5086417;28;20020;-73
2022/04/19 04:17:39;;;;;;;5.95;5.35;;;3.20;99.90;;;;;;5085621;28;20032;-74
2022/04/19 04:20:05;;;;;;;8.70;5.90;;;3.10;99.90;;;;;;5093476;28;20389;-73
2022/04/19 04:22:31;;;;;;;5.90;5.25;;;3.10;99.90;;;;;;5091987;28;20028;-73
2022/04/19 04:24:56;;;;;;;6.60;5.93;;;3.10;99.90;;;;;;5092067;28;20020;-73
2022/04/19 04:27:22;;;;;;;6.18;5.53;;;3.50;99.90;;;;;;5079211;28;20017;-73
2022/04/19 04:29:47;;;;;;;7.32;5.68;;;3.30;99.90;;;;;;5079942;28;20034;-73
2022/04/19 04:32:13;;;;;;;6.05;5.40;;;3.40;99.90;;;;;;5078065;28;20105;-73
2022/04/19 04:34:39;;;;;;;8.32;6.00;;;3.40;99.90;;;;;;5086207;28;20030;-73
2022/04/19 04:37:04;;;;;;;7.28;6.18;;;3.50;99.90;;;;;;5072730;28;20060;-73
2022/04/19 04:39:30;;;;;;;6.50;5.50;;;3.40;99.90;;;;;;5072789;28;20024;-73
2022/04/19 04:41:55;;;;;;;6.68;5.80;;;3.50;99.90;;;;;;5085949;28;20028;-73
2022/04/19 04:44:21;;;;;;;6.00;5.40;;;3.50;99.90;;;;;;5078079;28;20016;-73
2022/04/19 04:49:36;;;;;;;7.43;5.70;;;3.60;99.90;;;;;;5052740;28;20048;-73
2022/04/19 04:52:12;;;;;;;7.68;5.80;;;3.60;99.90;;;;;;5081390;28;20375;-73
2022/04/19 04:54:39;;;;;;;6.78;5.53;;;3.50;99.90;;;;;;5072615;28;20089;-73
2022/04/19 04:57:05;;;;;;;7.35;5.82;;;3.40;99.90;;;;;;5072330;28;20441;-73
2022/04/19 04:59:31;;;;;;;6.65;5.60;;;3.40;99.90;;;;;;5084136;28;20055;-72
2022/04/19 05:01:58;;;;;;;6.30;5.68;;;3.40;99.90;;;;;;5079000;28;20112;-72
2022/04/19 05:04:24;;;;;;;7.78;5.50;;;3.50;99.90;;;;;;5090674;28;20024;-74
2022/04/19 05:06:50;;;;;;;6.05;5.43;;;3.50;99.90;;;;;;5078814;28;20031;-74
2022/04/19 05:09:15;;;;;;;7.97;6.07;;;3.60;99.90;;;;;;5080522;28;20497;-73
2022/04/19 05:11:41;;;;;;;7.05;6.13;;;3.50;99.90;;;;;;5077128;28;20016;-72
2022/04/19 05:14:10;;;;;;;10.13;7.63;;;3.50;99.90;;;;;;5080393;28;20025;-73
2022/04/19 05:16:36;;;;;;;7.60;6.80;;;3.70;99.90;;;;;;5085418;28;20466;-73
2022/04/19 05:19:05;;;;;;;8.82;7.03;;;3.60;99.90;;;;;;5084774;28;20084;-73
2022/04/19 05:21:31;;;;;;;7.45;6.70;;;3.80;99.90;;;;;;5072148;28;20032;-73
2022/04/19 05:23:56;;;;;;;8.35;7.55;;;3.90;99.90;;;;;;5072043;28;20028;-73
2022/04/19 05:26:24;;;;;;;8.20;6.80;;;3.90;99.90;;;;;;5085534;28;20031;-73
2022/04/19 05:28:50;;;;;;;8.85;6.63;;;3.90;99.90;;;;;;5083689;28;20480;-73
2022/04/19 05:31:16;;;;;;;7.63;6.20;;;4.00;99.90;;;;;;5077133;28;20066;-73
2022/04/19 05:33:41;;;;;;;8.15;6.53;;;4.20;99.90;;;;;;5079126;28;20060;-73
2022/04/19 05:36:07;;;;;;;9.93;6.60;;;4.40;99.90;;;;;;5085487;28;20103;-73
2022/04/19 05:38:32;;;;;;;6.80;6.10;;;4.60;99.90;;;;;;5084802;28;20477;-73
2022/04/19 05:40:58;;;;;;;8.80;7.53;;;4.70;99.90;;;;;;5091866;28;20032;-73
2022/04/19 05:43:24;;;;;;;13.32;7.88;;;4.70;99.90;;;;;;5079040;28;20480;-73
2022/04/19 05:45:50;;;;;;;8.20;6.30;;;4.90;99.90;;;;;;5085472;28;20066;-72
2022/04/19 05:48:15;;;;;;;8.35;6.45;;;5.00;99.90;;;;;;5084734;28;20380;-72
2022/04/19 05:50:41;;;;;;;6.75;5.93;;;5.10;99.90;;;;;;5071730;28;20374;-73
2022/04/19 05:53:06;;;;;;;7.25;6.55;;;5.30;99.90;;;;;;5071713;28;20457;-73
2022/04/19 05:55:34;;;;;;;8.18;6.70;;;5.40;99.90;;;;;;5083669;28;20020;-73
2022/04/19 05:58:00;;;;;;;6.97;6.15;;;5.50;99.90;;;;;;5070364;28;20067;-73
2022/04/19 06:00:26;;;;;;;7.93;6.60;;;5.60;99.90;;;;;;5071608;28;20048;-73
2022/04/19 06:05:35;;;;;;;8.98;6.38;;;5.90;99.90;;;;;;5051676;28;20033;-72
2022/04/19 06:08:01;;;;;;;7.72;6.00;;;6.10;99.90;;;;;;5079919;28;20431;-73
2022/04/19 06:10:27;;;;;;;7.10;6.38;;;6.10;99.90;;;;;;5079218;28;20028;-73
2022/04/19 06:12:52;;;;;;;8.23;5.38;;;6.10;99.90;;;;;;5091794;28;20088;-72
2022/04/19 06:15:18;;;;;;;8.98;6.38;;;6.00;99.90;;;;;;5093618;28;20020;-72
2022/04/19 06:17:43;;;;;;;11.63;6.40;;;6.10;99.90;;;;;;5082097;28;20115;-71
2022/04/19 06:20:10;;;;;;;7.55;5.93;;;6.20;99.90;;;;;;5086675;28;20089;-72
2022/04/19 06:22:36;;;;;;;7.10;5.97;;;6.20;99.90;;;;;;5087458;28;20438;-73
2022/04/19 06:25:02;;;;;;;6.93;5.55;;;6.30;99.90;;;;;;5083109;28;20028;-73
2022/04/19 06:27:28;;;;;;;6.45;5.75;;;6.20;99.90;;;;;;5094648;28;20026;-73
2022/04/19 06:29:56;;;;;;;7.40;5.45;;;6.30;99.90;;;;;;5083277;28;20470;-73
2022/04/19 06:32:22;;;;;;;6.93;5.90;;;6.30;99.90;;;;;;5080540;28;20055;-73
2022/04/19 06:34:48;;;;;;;8.18;6.03;;;6.20;99.90;;;;;;5087405;28;20021;-73
2022/04/19 06:37:14;;;;;;;7.38;5.82;;;6.20;99.90;;;;;;5088665;28;20031;-73
2022/04/19 06:39:41;;;;;;;8.05;6.15;;;6.20;99.90;;;;;;5073886;28;20024;-73
2022/04/19 06:42:06;;;;;;;7.63;6.10;;;6.30;99.90;;;;;;5089783;28;20385;-73
2022/04/19 06:44:32;;;;;;;6.95;6.28;;;6.30;99.90;;;;;;5086081;28;20024;-73
2022/04/19 06:46:57;;;;;;;7.47;6.68;;;6.40;99.90;;;;;;5075939;28;20103;-73
2022/04/19 06:49:23;;;;;;;9.55;6.97;;;6.30;99.90;;;;;;5085733;28;20017;-73
2022/04/19 06:51:49;;;;;;;7.65;6.88;;;6.30;99.90;;;;;;5088212;28;20505;-73
2022/04/19 06:54:15;;;;;;;7.80;6.78;;;6.40;99.90;;;;;;5082920;28;20125;-73
2022/04/19 06:56:41;;;;;;;7.85;6.65;;;6.50;99.90;;;;;;5081575;28;20021;-73
2022/04/19 06:59:08;;;;;;;8.68;7.05;;;6.60;99.90;;;;;;5086849;28;20017;-73
2022/04/19 07:01:34;;;;;;;8.18;7.38;;;6.70;99.90;;;;;;5088167;28;20111;-73
2022/04/19 07:03:59;;;;;;;8.85;6.82;;;6.80;99.90;;;;;;5081753;28;20059;-73
2022/04/19 07:06:25;;;;;;;7.93;6.70;;;6.90;99.90;;;;;;5079959;28;20552;-73
2022/04/19 07:08:50;;;;;;;8.60;6.50;;;7.00;99.90;;;;;;5082729;28;20032;-73
2022/04/19 07:11:16;;;;;;;7.43;6.40;;;7.10;99.90;;;;;;5080982;28;20103;-73
2022/04/19 07:13:45;;;;;;;9.15;7.13;;;7.30;99.90;;;;;;5086623;28;20039;-73
2022/04/19 07:16:10;;;;;;;7.30;6.38;;;7.40;99.90;;;;;;5074237;28;20025;-73
2022/04/19 07:18:36;;;;;;;8.90;6.57;;;7.40;99.90;;;;;;5081011;28;20030;-74
2022/04/19 07:26:40;;;;;;;8.30;6.10;;;7.90;99.90;;;;;;5067187;28;20034;-73
2022/04/19 07:29:08;;;;;;;8.32;5.82;;;8.10;99.90;;;;;;5079571;28;20079;-73
2022/04/19 07:31:34;;;;;;;10.25;6.45;;;8.10;99.90;;;;;;5072676;28;20028;-73
2022/04/19 07:34:01;;;;;;;8.48;6.50;;;8.10;99.90;;;;;;5087503;28;20380;-74
2022/04/19 07:36:27;;;;;;;7.95;6.28;;;8.20;99.90;;;;;;5073800;28;20042;-74
2022/04/19 07:38:52;;;;;;;8.35;6.53;;;8.30;99.90;;;;;;5074561;28;20031;-73
2022/04/19 07:41:18;;;;;;;7.90;6.47;;;8.50;99.90;;;;;;5084277;28;20458;-73
2022/04/19 07:43:45;;;;;;;9.10;6.57;;;8.70;99.90;;;;;;5087607;28;20024;-73
2022/04/19 07:46:14;;;;;;;7.47;6.22;;;8.70;99.90;;;;;;5082083;28;20050;-73
2022/04/19 07:48:39;;;;;;;7.72;6.05;;;8.90;99.90;;;;;;5075421;28;20128;-73
2022/04/19 07:51:06;;;;;;;7.05;5.75;;;9.10;99.90;;;;;;5082340;28;20099;-73
2022/04/19 07:53:31;;;;;;;7.38;6.10;;;9.20;99.90;;;;;;5080264;28;20020;-74
2022/04/19 07:55:57;;;;;;;8.85;5.75;;;9.40;99.90;;;;;;5085076;28;20031;-73
2022/04/19 07:58:24;;;;;;;9.45;5.57;;;9.40;99.90;;;;;;5073649;28;20020;-74
2022/04/19 08:00:49;;;;;;;6.97;5.28;;;9.60;99.90;;;;;;5081139;28;20024;-73
2022/04/19 08:03:15;;;;;;;7.40;5.95;;;9.70;99.90;;;;;;5080094;28;20478;-73
2022/04/19 08:05:41;;;;;;;7.55;5.35;;;9.80;99.90;;;;;;5084738;28;20074;-73
2022/04/19 08:08:06;;;;;;;8.18;5.60;;;10.10;99.90;;;;;;5085852;28;20557;-73
2022/04/19 08:10:32;;;;;;;7.20;4.93;;;10.20;99.90;;;;;;5082146;28;20081;-74
2022/04/19 08:12:57;;;;;;;6.82;5.32;;;10.20;99.90;;;;;;5078830;28;20075;-73
2022/04/19 08:15:24;;;;;;;8.02;5.13;;;10.30;99.90;;;;;;5084584;28;20024;-73
2022/04/19 08:17:49;;;;;;;6.40;5.00;;;10.40;99.90;;;;;;5085462;28;20028;-74
2022/04/19 08:20:15;;;;;;;7.68;5.20;;;10.60;99.90;;;;;;5073102;28;20554;-74
2022/04/19 08:22:42;;;;;;;7.90;5.00;;;10.50;99.90;;;;;;5075530;28;20020;-73
2022/04/19 08:25:10;;;;;;;6.05;4.30;;;10.60;99.90;;;;;;5084113;28;20028;-73
2022/04/19 08:27:40;;;;;;;5.10;4.50;;;10.70;99.90;;;;;;5086493;28;20115;-73
2022/04/19 08:30:08;;;;;;;5.93;4.35;;;10.70;99.90;;;;;;5083232;28;20059;-73
2022/04/19 08:32:33;;;;;;;7.40;4.65;;;10.80;99.90;;;;;;5089357;28;20029;-73
2022/04/19 08:34:59;;;;;;;6.25;5.03;;;10.80;99.90;;;;;;5071170;28;20031;-74
2022/04/19 08:37:32;;;;;;;6.45;4.10;;;11.10;99.90;;;;;;5072401;28;20166;-73
2022/04/19 08:39:58;;;;;;;7.15;4.55;;;11.30;99.90;;;;;;5083739;28;20106;-73
2022/04/19 08:42:24;;;;;;;5.03;3.85;;;11.30;99.90;;;;;;5079336;28;20095;-74
2022/04/19 08:44:50;;;;;;;5.78;4.72;;;11.00;99.90;;;;;;5082081;28;20064;-74
2022/04/19 08:47:16;;;;;;;5.55;4.70;;;11.00;99.90;;;;;;5076650;28;20062;-74
2022/04/19 08:49:42;;;;;;;6.25;4.40;;;11.20;99.90;;;;;;5081987;28;20024;-74
2022/04/19 08:52:08;;;;;;;5.93;4.53;;;11.30;99.90;;;;;;5086060;28;20028;-73
2022/04/19 08:57:31;;;;;;;6.18;4.70;;;11.10;99.90;;;;;;5086363;28;20052;-73
2022/04/19 09:00:01;;;;;;;6.13;4.25;;;11.00;99.90;;;;;;5084739;28;20069;-74
2022/04/19 09:02:29;;;;;;;5.07;4.05;;;11.10;99.90;;;;;;5071128;28;20029;-73
2022/04/19 09:05:14;;;;;;;6.47;4.30;;;11.20;99.90;;;;;;5072429;28;20028;-74
2022/04/19 09:07:41;;;;;;;5.57;3.92;;;11.50;99.90;;;;;;5072327;28;20028;-73
2022/04/19 09:10:07;;;;;;;5.47;4.32;;;11.60;99.90;;;;;;5090955;28;20024;-73
2022/04/19 09:12:34;;;;;;;5.53;4.00;;;11.70;99.90;;;;;;5080483;28;20165;-73
2022/04/19 09:15:06;;;;;;;4.78;4.13;;;11.50;99.90;;;;;;5085879;28;20058;-73
2022/04/19 09:17:41;;;;;;;5.63;4.38;;;11.50;99.90;;;;;;5078013;28;20035;-73
2022/04/19 09:20:08;;;;;;;6.30;4.43;;;11.60;99.90;;;;;;5052259;28;20021;-73
2022/04/19 09:22:33;;;;;;;4.22;3.83;;;11.80;99.90;;;;;;5082694;28;20417;-73
2022/04/19 09:25:14;;;;;;;5.57;4.40;;;12.00;99.90;;;;;;5079189;28;20032;-73
2022/04/19 09:27:40;;;;;;;6.45;4.13;;;12.10;99.90;;;;;;5089702;28;20051;-74
2022/04/19 09:30:19;;;;;;;5.88;4.80;;;11.80;99.90;;;;;;5080147;28;20047;-73
2022/04/19 09:33:12;;;;;;;5.25;4.68;;;11.80;99.90;;;;;;5074206;28;20466;-74
2022/04/19 09:35:49;;;;;;;6.05;4.20;;;11.90;99.90;;;;;;5082387;28;20028;-74
2022/04/19 09:38:17;;;;;;;4.40;4.00;;;12.20;99.90;;;;;;5072118;28;20497;-73
2022/04/19 09:40:48;;;;;;;5.90;4.22;;;12.40;99.90;;;;;;5087516;28;20020;-73
2022/04/19 09:43:21;;;;;;;6.13;3.70;;;12.00;99.90;;;;;;5091978;28;20036;-72
2022/04/19 09:45:58;;;;;;;7.43;4.20;;;11.90;99.90;;;;;;5091881;28;20028;-73
2022/04/19 09:48:27;;;;;;;6.60;3.58;;;11.90;99.90;;;;;;5079265;28;20039;-70
2022/04/19 09:50:57;;;;;;;4.35;3.85;;;12.00;99.90;;;;;;5063792;28;20024;-73
2022/04/19 09:53:27;;;;;;;5.80;3.97;;;12.20;99.90;;;;;;5091700;28;20361;-73
2022/04/19 09:55:55;;;;;;;4.15;3.67;;;12.40;99.90;;;;;;5091408;28;20496;-73
2022/04/19 09:58:22;;;;;;;5.18;3.20;;;12.50;99.90;;;;;;5071544;28;20020;-73
2022/04/19 10:00:49;;;;;;;3.88;3.08;;;12.30;99.90;;;;;;5071202;28;20494;-73
2022/04/19 10:08:46;;;;;;;5.38;3.55;;;13.00;99.90;;;;;;5058692;28;20046;-72
2022/04/19 10:11:12;;;;;;;3.55;3.25;;;12.90;99.90;;;;;;5071149;28;20025;-73
2022/04/19 10:13:39;;;;;;;4.18;2.58;;;13.40;99.90;;;;;;5074331;28;20114;-72
2022/04/19 10:16:14;;;;;;;4.38;2.55;;;13.30;99.90;;;;;;5071673;28;20021;-73
2022/04/19 10:18:44;;;;;;;3.83;2.33;;;13.00;99.90;;;;;;5075437;28;20502;-72
2022/04/19 10:21:15;;;;;;;3.72;2.10;;;13.20;99.90;;;;;;5074649;28;20139;-73
2022/04/19 10:23:41;;;;;;;3.45;2.45;;;13.00;99.90;;;;;;5069807;28;20047;-73
2022/04/19 10:26:21;;;;;;;4.03;2.42;;;12.90;99.90;;;;;;5072034;28;20085;-73
2022/04/19 10:28:52;;;;;;;6.63;2.45;;;13.20;99.90;;;;;;5071430;28;20035;-73
2022/04/19 10:31:34;;;;;;;2.70;2.10;;;13.20;99.90;;;;;;5068440;28;20017;-72
2022/04/19 10:34:04;;;;;;;3.28;2.10;;;13.50;99.90;;;;;;5091595;28;20037;-73
2022/04/19 10:36:33;;;;;;;3.67;2.60;;;13.60;99.90;;;;;;5071799;28;20090;-73
2022/04/19 10:39:16;;;;;;;3.45;2.50;;;13.40;99.90;;;;;;5071905;28;20073;-73
2022/04/19 10:41:48;;;;;;;3.13;1.95;;;13.50;99.90;;;;;;5070971;28;20029;-73
2022/04/19 10:44:26;;;;;;;2.45;1.70;;;13.50;99.90;;;;;;5071220;28;20024;-73
2022/04/19 10:47:14;;;;;;;3.65;2.20;;;13.50;99.90;;;;;;5075191;28;20390;-73
2022/04/19 10:49:59;;;;;;;3.03;2.20;;;13.30;99.90;;;;;;5071094;28;20048;-73
2022/04/19 10:52:39;;;;;;;3.95;3.58;;;13.20;99.90;;;;;;5090755;28;20024;-73
2022/04/19 10:55:17;;;;;;;2.97;1.98;;;13.50;99.90;;;;;;5091190;28;20020;-73
2022/04/19 11:00:48;;;;;;;1.95;1.50;;;13.60;99.90;;;;;;5070831;28;20550;-73
2022/04/19 11:03:37;;;;;;;1.30;1.20;;;13.80;99.90;;;;;;5073975;28;20029;-73
2022/04/19 11:06:28;;;;;;;3.15;1.50;;;13.80;99.90;;;;;;5083192;28;20440;-73
2022/04/19 11:09:23;;;;;;;1.70;1.60;;;13.50;99.90;;;;;;5063043;28;20558;-73
2022/04/19 11:12:15;;;;;;;2.53;1.92;;;13.70;99.90;;;;;;5088027;28;20025;-73
2022/04/19 11:14:41;;;;;;;2.10;1.90;;;13.80;99.90;;;;;;5073500;28;20032;-73
2022/04/19 11:17:39;;;;;;;2.20;2.00;;;13.90;99.90;;;;;;5073228;28;20099;-73
2022/04/19 11:20:14;;;;;;;2.42;2.20;;;14.00;99.90;;;;;;5077572;28;20020;-73
2022/04/19 11:22:46;;;;;;;2.75;1.90;;;14.10;99.90;;;;;;5074293;28;20028;-73
2022/04/19 11:25:12;;;;;;;3.97;1.75;;;14.40;99.80;;;;;;5074102;28;20155;-73
2022/04/19 11:27:52;;;;;;;4.05;1.80;;;14.50;99.90;;;;;;5090210;28;20103;-73
2022/04/19 11:30:19;;;;;;;2.40;1.55;;;14.30;99.90;;;;;;5092230;28;20051;-73
2022/04/19 11:32:50;;;;;;;1.92;1.60;;;14.60;99.90;;;;;;5073990;28;20028;-73
2022/04/19 11:35:17;;;;;;;1.90;1.52;;;14.50;99.90;;;;;;5073979;28;20073;-73
2022/04/19 11:37:43;;;;;;;3.22;1.20;;;14.40;99.90;;;;;;5079701;28;20118;-73
2022/04/19 11:48:52;;;;;;;1.90;1.38;;;15.30;95.80;;;;;;5073727;28;20446;-73
2022/04/19 11:51:20;;;;;;;1.30;1.10;;;14.80;96.00;;;;;;5073504;28;20029;-73
2022/04/19 11:53:46;;;;;;;1.90;1.10;;;15.10;97.30;;;;;;5073652;28;20102;-73
2022/04/19 11:56:12;;;;;;;1.50;1.17;;;15.20;96.40;;;;;;5073482;28;20021;-73
2022/04/19 11:58:43;;;;;;;1.98;1.45;;;15.20;96.10;;;;;;5073437;28;20074;-73
2022/04/19 12:01:10;;;;;;;2.25;1.00;;;15.10;95.50;;;;;;5073581;28;20359;-73
2022/04/19 12:03:39;;;;;;;1.77;1.10;;;15.40;95.00;;;;;;5073487;28;20032;-73
2022/04/19 12:06:12;;;;;;;1.10;1.00;;;15.50;94.10;;;;;;5073384;28;20436;-73
2022/04/19 12:08:42;;;;;;;1.30;1.20;;;15.40;93.40;;;;;;5093115;28;20063;-73
2022/04/19 12:11:11;;;;;;;1.23;1.13;;;15.40;94.10;;;;;;5092207;28;20051;-73
2022/04/19 12:13:37;;;;;;;3.53;1.20;;;15.50;93.60;;;;;;5093081;28;20060;-73
2022/04/19 12:16:06;;;;;;;1.77;1.10;;;15.40;93.50;;;;;;5092161;28;20024;-73
2022/04/19 12:18:36;;;;;;;1.45;1.20;;;15.60;93.50;;;;;;5086065;28;20485;-73
2022/04/19 12:21:04;;;;;;;2.30;1.05;;;15.80;93.20;;;;;;5072917;28;20025;-73
2022/04/19 12:23:30;;;;;;;2.85;1.20;;;16.20;92.30;;;;;;5071789;28;20055;-73
2022/04/19 12:26:10;;;;;;;1.13;0.90;;;16.70;92.30;;;;;;5073045;28;20083;-73
2022/04/19 12:28:46;;;;;;;1.58;1.20;;;16.90;90.60;;;;;;5073084;28;20482;-73
2022/04/19 12:31:32;;;;;;;;;;;16.90;89.90;;;;;;5089860;28;20024;-73
2022/04/19 12:33:58;;;;;;;2.22;1.10;;;17.00;90.00;;;;;;5091754;28;19911;-73
2022/04/19 12:36:25;;;;;;;1.20;1.10;;;16.70;87.80;;;;;;5092925;28;20149;-73
2022/04/19 12:39:01;;;;;;;1.83;1.33;;;16.90;88.40;;;;;;5093020;28;20359;-73
2022/04/19 12:41:54;;;;;;;1.10;1.00;;;16.80;86.60;;;;;;5092855;28;20024;-73
2022/04/19 12:44:19;;;;;;;1.73;1.38;;;17.20;84.00;;;;;;5085335;28;20415;-73
2022/04/19 12:46:48;;;;;;;1.60;1.50;;;17.80;85.30;;;;;;5072548;28;20063;-72
2022/04/19 12:49:29;;;;;;;1.77;1.35;;;17.50;83.10;;;;;;5072519;28;20085;-73
2022/04/19 12:52:05;;;;;;;1.50;1.40;;;17.60;84.50;;;;;;5072289;28;20050;-73
2022/04/19 12:54:33;;;;;;;1.60;1.50;;;18.00;82.20;;;;;;5082791;28;20115;-73
2022/04/19 12:57:10;;;;;;;2.78;1.70;;;18.40;84.30;;;;;;5083004;28;20093;-73
2022/04/19 12:59:36;;;;;;;4.03;1.73;;;18.70;82.00;;;;;;5072254;28;20111;-73
2022/04/19 13:02:02;;;;;;;2.60;1.83;;;18.80;81.20;;;;;;5072088;28;20103;-73
2022/04/19 13:04:28;;;;;;;1.95;1.35;;;19.40;78.50;;;;;;5072043;28;20021;-73
2022/04/19 13:12:24;;;;;;;1.55;1.35;;;18.80;77.40;;;;;;5072256;28;20039;-73
2022/04/19 13:14:52;;;;;;;2.47;1.60;;;19.20;77.40;;;;;;5070978;28;20159;-73
2022/04/19 13:17:18;;;;;;;2.20;1.48;;;19.50;75.10;;;;;;5070975;28;20086;-73
2022/04/19 13:19:45;;;;;;;2.22;1.35;;;19.70;73.00;;;;;;5076758;28;20030;-73
2022/04/19 13:22:11;;;;;;;1.92;1.58;;;20.00;74.20;;;;;;5079050;28;20021;-73
2022/04/19 13:24:38;;;;;;;3.17;1.52;;;19.60;71.70;;;;;;5071254;28;20025;-73
2022/04/19 13:27:05;;;;;;;2.25;1.40;;;19.20;71.80;;;;;;5083750;28;20040;-73
2022/04/19 13:29:30;;;;;;;2.78;1.42;;;19.70;72.90;;;;;;5073435;28;20025;-73
2022/04/19 13:31:56;;;;;;;3.08;1.60;;;19.70;71.40;;;;;;5083402;28;20016;-72
2022/04/19 13:34:22;;;;;;;2.15;1.48;;;19.60;70.10;;;;;;5073600;28;20446;-73
2022/04/19 13:36:48;;;;;;;2.42;1.45;;;19.60;70.30;;;;;;5071704;28;20466;-73
2022/04/19 13:39:14;;;;;;;2.45;1.50;;;19.80;68.50;;;;;;5070604;28;20021;-73
2022/04/19 13:41:41;;;;;;;2.13;1.77;;;20.10;68.70;;;;;;5071685;28;20093;-73